Time;durP1;ratioP1;P1;durP2;ratioP2;P2;SDS_P1;SDS_P2;PMS_P1;PMS_P2;Temp;Humidity;BMP_temperature;BMP_pressure;BME280_temperature;BME280_humidity;BME280_pressure;Samples;Min_cycle;Max_cycle;Signal;HPM_P1;HPM_P2
2024/01/14 00:00:06;;;;;;;39.42;24.52;;;;;;;;;;4936636;29;20038;-58
2024/01/14 00:02:31;;;;;;;36.65;21.67;;;;;;;;;;4937484;29;20226;-57
2024/01/14 00:04:57;;;;;;;34.45;22.27;;;;;;;;;;4937234;29;20044;-58
2024/01/14 00:07:23;;;;;;;35.35;23.48;;;;;;;;;;4935188;29;20047;-58
2024/01/14 00:09:48;;;;;;;37.58;23.85;;;;;;;;;;4935889;29;20038;-55
2024/01/14 00:12:14;;;;;;;37.17;23.88;;;;;;;;;;4933972;29;20529;-56
2024/01/14 00:14:41;;;;;;;33.47;21.13;;;;;;;;;;4935199;29;20111;-58
2024/01/14 00:17:06;;;;;;;39.03;22.40;;;;;;;;;;4933887;29;20050;-58
2024/01/14 00:19:32;;;;;;;35.20;22.85;;;;;;;;;;4937253;29;20441;-56
2024/01/14 00:21:57;;;;;;;37.53;23.52;;;;;;;;;;4935027;29;20158;-58
2024/01/14 00:24:22;;;;;;;30.30;22.05;;;;;;;;;;4935646;29;20036;-55
2024/01/14 00:26:48;;;;;;;32.17;20.38;;;;;;;;;;4934970;29;20115;-58
2024/01/14 00:29:13;;;;;;;34.47;22.88;;;;;;;;;;4941947;29;20023;-57
2024/01/14 00:31:39;;;;;;;36.10;25.67;;;;;;;;;;4938678;29;20031;-58
2024/01/14 00:34:04;;;;;;;38.60;24.80;;;;;;;;;;4941482;29;20032;-54
2024/01/14 00:36:29;;;;;;;32.70;24.67;;;;;;;;;;4937387;29;20043;-57
2024/01/14 00:38:55;;;;;;;38.53;23.88;;;;;;;;;;4954048;28;20670;-57
2024/01/14 00:41:20;;;;;;;34.50;22.02;;;;;;;;;;4940460;29;20047;-54
2024/01/14 00:43:46;;;;;;;32.70;23.23;;;;;;;;;;4940111;29;20368;-57
2024/01/14 00:46:12;;;;;;;35.28;23.60;;;;;;;;;;4938131;29;20019;-58
2024/01/14 00:48:37;;;;;;;37.75;23.58;;;;;;;;;;4940307;29;20512;-58
2024/01/14 00:51:02;;;;;;;36.47;24.60;;;;;;;;;;4940215;29;20043;-58
2024/01/14 00:53:28;;;;;;;34.90;23.08;;;;;;;;;;4939717;28;20123;-56
2024/01/14 00:55:53;;;;;;;36.92;24.92;;;;;;;;;;4936686;29;20042;-56
2024/01/14 00:58:19;;;;;;;35.15;23.70;;;;;;;;;;4940666;29;20062;-58
2024/01/14 01:00:44;;;;;;;35.55;24.45;;;;;;;;;;4936588;29;20028;-59
2024/01/14 01:03:09;;;;;;;30.98;20.90;;;;;;;;;;4940514;29;20067;-56
2024/01/14 01:05:35;;;;;;;34.42;24.98;;;;;;;;;;4940509;29;20338;-56
2024/01/14 01:08:01;;;;;;;34.75;24.95;;;;;;;;;;4935002;29;20043;-57
2024/01/14 01:10:26;;;;;;;36.10;24.05;;;;;;;;;;4938159;29;20031;-57
2024/01/14 01:12:52;;;;;;;43.13;27.05;;;;;;;;;;4936935;29;20191;-54
2024/01/14 01:15:17;;;;;;;37.47;24.65;;;;;;;;;;4937237;29;20059;-55
2024/01/14 01:17:43;;;;;;;38.53;22.23;;;;;;;;;;4936321;28;20550;-56
2024/01/14 01:20:08;;;;;;;38.83;24.95;;;;;;;;;;4937672;29;20035;-57
2024/01/14 01:22:34;;;;;;;34.45;23.50;;;;;;;;;;4938800;29;20036;-56
2024/01/14 01:25:00;;;;;;;35.28;20.63;;;;;;;;;;4936873;29;20031;-57
2024/01/14 01:27:25;;;;;;;36.60;23.80;;;;;;;;;;4938855;29;20569;-56
2024/01/14 01:29:51;;;;;;;37.33;22.83;;;;;;;;;;4939755;29;20027;-56
2024/01/14 01:32:16;;;;;;;38.45;23.27;;;;;;;;;;4938820;29;20044;-57
2024/01/14 01:34:43;;;;;;;36.85;22.08;;;;;;;;;;4939534;29;20505;-58
2024/01/14 01:37:09;;;;;;;37.92;24.45;;;;;;;;;;4932768;29;20127;-56
2024/01/14 01:39:34;;;;;;;41.20;26.92;;;;;;;;;;4937963;29;20545;-57
2024/01/14 01:41:59;;;;;;;39.95;25.95;;;;;;;;;;4939222;29;20094;-58
2024/01/14 01:44:25;;;;;;;44.88;27.60;;;;;;;;;;4953711;28;20046;-56
2024/01/14 01:46:51;;;;;;;35.33;25.08;;;;;;;;;;4936373;29;20051;-55
2024/01/14 01:49:17;;;;;;;38.30;25.00;;;;;;;;;;4933703;29;20044;-56
2024/01/14 01:51:47;;;;;;;33.63;25.38;;;;;;;;;;4939370;29;20047;-58
2024/01/14 01:54:13;;;;;;;36.20;22.67;;;;;;;;;;4938631;29;20036;-58
2024/01/14 01:56:39;;;;;;;29.90;21.88;;;;;;;;;;4935000;29;20135;-59
2024/01/14 01:59:05;;;;;;;29.08;20.58;;;;;;;;;;4939242;29;20059;-58
2024/01/14 02:01:32;;;;;;;31.23;22.83;;;;;;;;;;4937713;29;20462;-57
2024/01/14 02:04:00;;;;;;;29.30;18.88;;;;;;;;;;4938632;29;20443;-56
2024/01/14 02:06:27;;;;;;;30.00;20.33;;;;;;;;;;4935449;29;20035;-56
2024/01/14 02:08:53;;;;;;;31.02;19.58;;;;;;;;;;4937379;29;20024;-58
2024/01/14 02:11:19;;;;;;;28.25;20.02;;;;;;;;;;4935125;29;20035;-57
2024/01/14 02:13:45;;;;;;;29.88;20.02;;;;;;;;;;4938685;29;20406;-56
2024/01/14 02:16:10;;;;;;;32.33;21.25;;;;;;;;;;4938148;29;20043;-55
2024/01/14 02:18:35;;;;;;;28.30;18.13;;;;;;;;;;4933677;29;20118;-58
2024/01/14 02:21:01;;;;;;;29.83;19.33;;;;;;;;;;4931839;29;20020;-57
2024/01/14 02:23:32;;;;;;;26.00;19.88;;;;;;;;;;4938073;29;20028;-56
2024/01/14 02:25:58;;;;;;;29.77;19.27;;;;;;;;;;4939324;29;20051;-57
2024/01/14 02:28:24;;;;;;;25.65;19.65;;;;;;;;;;4935457;28;20043;-58
2024/01/14 02:30:49;;;;;;;25.77;17.23;;;;;;;;;;4933538;29;20107;-59
2024/01/14 02:33:16;;;;;;;28.23;18.60;;;;;;;;;;4937151;29;20047;-57
2024/01/14 02:35:42;;;;;;;35.92;21.67;;;;;;;;;;4939281;29;20060;-58
2024/01/14 02:38:08;;;;;;;30.27;19.08;;;;;;;;;;4934829;29;20040;-54
2024/01/14 02:40:34;;;;;;;33.45;19.58;;;;;;;;;;4937064;29;20566;-56
2024/01/14 02:42:59;;;;;;;28.77;17.95;;;;;;;;;;4937835;29;20073;-57
2024/01/14 02:45:30;;;;;;;32.03;18.98;;;;;;;;;;4937256;29;20060;-55
2024/01/14 02:47:56;;;;;;;27.92;17.85;;;;;;;;;;4937542;29;20044;-58
2024/01/14 02:50:21;;;;;;;27.40;17.25;;;;;;;;;;4938798;29;20031;-56
2024/01/14 02:52:47;;;;;;;25.98;16.02;;;;;;;;;;4933764;29;20127;-58
2024/01/14 02:55:12;;;;;;;27.20;19.10;;;;;;;;;;4931172;29;20060;-55
2024/01/14 02:57:37;;;;;;;26.05;16.95;;;;;;;;;;4933836;29;20040;-57
2024/01/14 03:00:04;;;;;;;25.95;17.17;;;;;;;;;;4938722;29;20042;-58
2024/01/14 03:02:29;;;;;;;26.23;17.27;;;;;;;;;;4936212;29;20039;-57
2024/01/14 03:04:54;;;;;;;27.92;15.88;;;;;;;;;;4938694;29;20431;-57
2024/01/14 03:07:20;;;;;;;25.77;14.40;;;;;;;;;;4933356;29;20204;-57
2024/01/14 03:09:45;;;;;;;23.02;14.73;;;;;;;;;;4938435;29;20026;-55
2024/01/14 03:12:11;;;;;;;28.00;15.50;;;;;;;;;;4936783;29;20096;-58
2024/01/14 03:14:36;;;;;;;22.95;17.23;;;;;;;;;;4936714;29;20032;-56
2024/01/14 03:17:01;;;;;;;25.92;16.70;;;;;;;;;;4935942;29;20044;-56
2024/01/14 03:19:27;;;;;;;27.35;16.77;;;;;;;;;;4937302;29;20035;-57
2024/01/14 03:21:53;;;;;;;24.30;15.40;;;;;;;;;;4934667;29;20035;-58
2024/01/14 03:24:19;;;;;;;23.90;16.83;;;;;;;;;;4937794;29;20567;-56
2024/01/14 03:26:44;;;;;;;20.13;14.30;;;;;;;;;;4937866;29;20066;-57
2024/01/14 03:29:09;;;;;;;22.75;14.98;;;;;;;;;;4936649;29;20030;-58
2024/01/14 03:31:35;;;;;;;18.70;15.73;;;;;;;;;;4933174;29;20095;-56
2024/01/14 03:34:00;;;;;;;25.50;16.52;;;;;;;;;;4938033;29;20398;-57
2024/01/14 03:36:26;;;;;;;23.75;14.38;;;;;;;;;;4937287;29;20023;-55
2024/01/14 03:38:51;;;;;;;22.17;15.68;;;;;;;;;;4935062;29;20038;-57
2024/01/14 03:41:16;;;;;;;24.60;17.05;;;;;;;;;;4938100;29;20090;-58
2024/01/14 03:43:42;;;;;;;25.52;18.23;;;;;;;;;;4935434;29;20069;-57
2024/01/14 03:46:08;;;;;;;24.63;17.08;;;;;;;;;;4938167;29;20086;-57
2024/01/14 03:48:33;;;;;;;27.00;16.10;;;;;;;;;;4933942;29;20047;-58
2024/01/14 03:50:58;;;;;;;26.60;16.23;;;;;;;;;;4935432;29;20035;-58
2024/01/14 03:53:24;;;;;;;24.85;15.50;;;;;;;;;;4936237;29;20043;-55
2024/01/14 03:55:49;;;;;;;23.73;13.95;;;;;;;;;;4936865;29;20032;-57
2024/01/14 03:58:15;;;;;;;21.58;14.75;;;;;;;;;;4935841;29;20047;-58
2024/01/14 04:00:41;;;;;;;22.13;13.82;;;;;;;;;;4936887;29;20513;-57
2024/01/14 04:03:06;;;;;;;21.98;16.10;;;;;;;;;;4936883;28;20454;-57
2024/01/14 04:05:31;;;;;;;22.08;15.48;;;;;;;;;;4927593;29;20024;-58
2024/01/14 04:07:57;;;;;;;22.80;14.13;;;;;;;;;;4935699;29;20131;-58
2024/01/14 04:10:22;;;;;;;21.48;14.15;;;;;;;;;;4933337;29;20086;-58
2024/01/14 04:12:48;;;;;;;26.48;14.80;;;;;;;;;;4936192;29;20517;-57
2024/01/14 04:15:13;;;;;;;20.90;14.68;;;;;;;;;;4936770;29;20426;-57
2024/01/14 04:17:39;;;;;;;18.00;14.15;;;;;;;;;;4935191;29;20098;-58
2024/01/14 04:20:05;;;;;;;19.92;15.60;;;;;;;;;;4934992;29;20031;-58
2024/01/14 04:22:30;;;;;;;20.90;13.85;;;;;;;;;;4935596;29;20461;-55
2024/01/14 04:24:55;;;;;;;20.88;13.80;;;;;;;;;;4936812;29;20064;-58
2024/01/14 04:27:21;;;;;;;22.77;14.20;;;;;;;;;;4935686;29;20044;-58
2024/01/14 04:29:46;;;;;;;21.92;13.30;;;;;;;;;;4934894;29;20382;-58
2024/01/14 04:32:12;;;;;;;21.13;13.05;;;;;;;;;;4937138;29;20533;-55
2024/01/14 04:34:37;;;;;;;19.48;12.68;;;;;;;;;;4936841;29;20047;-57
2024/01/14 04:37:03;;;;;;;20.92;13.70;;;;;;;;;;4934071;29;20122;-57
2024/01/14 04:39:29;;;;;;;18.70;13.00;;;;;;;;;;4933467;29;20086;-58
2024/01/14 04:41:54;;;;;;;22.80;14.98;;;;;;;;;;4936411;29;20394;-58
2024/01/14 04:44:20;;;;;;;24.50;16.10;;;;;;;;;;4934378;29;20115;-55
2024/01/14 04:46:45;;;;;;;23.73;14.10;;;;;;;;;;4936326;29;20166;-57
2024/01/14 04:49:11;;;;;;;22.40;15.25;;;;;;;;;;4935440;29;20027;-58
2024/01/14 04:51:37;;;;;;;22.35;15.40;;;;;;;;;;4934270;29;20486;-56
2024/01/14 04:54:02;;;;;;;21.92;15.77;;;;;;;;;;4937167;29;20015;-57
2024/01/14 04:56:28;;;;;;;23.02;15.52;;;;;;;;;;4937095;29;20030;-58
2024/01/14 04:58:54;;;;;;;28.67;16.77;;;;;;;;;;4932222;29;20096;-54
2024/01/14 05:01:19;;;;;;;21.95;16.38;;;;;;;;;;4937149;29;20055;-57
2024/01/14 05:03:45;;;;;;;20.63;15.13;;;;;;;;;;4936939;29;20044;-57
2024/01/14 05:06:10;;;;;;;20.98;13.90;;;;;;;;;;4937387;29;20486;-54
2024/01/14 05:08:38;;;;;;;21.48;14.10;;;;;;;;;;4933674;29;20068;-56
2024/01/14 05:11:03;;;;;;;23.55;14.73;;;;;;;;;;4928990;29;20087;-58
2024/01/14 05:13:29;;;;;;;27.60;17.10;;;;;;;;;;4933084;29;20088;-56
2024/01/14 05:15:54;;;;;;;23.63;17.40;;;;;;;;;;4937900;29;20423;-58
2024/01/14 05:18:20;;;;;;;24.60;16.10;;;;;;;;;;4939128;29;20047;-57
2024/01/14 05:20:45;;;;;;;22.95;16.20;;;;;;;;;;4940560;29;20035;-57
2024/01/14 05:23:10;;;;;;;19.15;13.52;;;;;;;;;;4938509;29;20384;-57
2024/01/14 05:25:36;;;;;;;24.95;14.48;;;;;;;;;;4940297;29;20016;-58
2024/01/14 05:28:02;;;;;;;18.85;14.27;;;;;;;;;;4937203;29;20036;-55
2024/01/14 05:30:27;;;;;;;17.67;13.45;;;;;;;;;;4938662;29;20031;-54
2024/01/14 05:32:53;;;;;;;16.90;12.45;;;;;;;;;;4937854;29;20039;-53
2024/01/14 05:35:18;;;;;;;19.20;13.60;;;;;;;;;;4940612;29;20063;-57
2024/01/14 05:37:44;;;;;;;18.20;13.15;;;;;;;;;;4937644;29;20035;-55
2024/01/14 05:40:10;;;;;;;19.23;12.57;;;;;;;;;;4939214;29;20038;-56
2024/01/14 05:42:35;;;;;;;20.73;12.50;;;;;;;;;;4939461;29;20111;-57
2024/01/14 05:45:00;;;;;;;20.17;15.02;;;;;;;;;;4938522;29;20718;-59
2024/01/14 05:47:26;;;;;;;19.25;13.55;;;;;;;;;;4938433;29;20071;-57
2024/01/14 05:49:51;;;;;;;18.92;12.07;;;;;;;;;;4934855;29;20054;-57
2024/01/14 05:52:17;;;;;;;19.08;13.23;;;;;;;;;;4939651;29;20123;-58
2024/01/14 05:54:43;;;;;;;16.08;13.90;;;;;;;;;;4936821;29;20028;-56
2024/01/14 05:57:09;;;;;;;18.85;12.90;;;;;;;;;;4938806;29;20462;-58
2024/01/14 05:59:34;;;;;;;15.68;11.70;;;;;;;;;;4937003;29;20039;-56
2024/01/14 06:02:00;;;;;;;15.88;12.23;;;;;;;;;;4939072;29;20047;-58
2024/01/14 06:04:25;;;;;;;14.63;12.02;;;;;;;;;;4938126;29;20039;-57
2024/01/14 06:06:50;;;;;;;14.55;10.60;;;;;;;;;;4938121;29;20103;-57
2024/01/14 06:09:16;;;;;;;16.15;12.32;;;;;;;;;;4937006;29;20110;-58
2024/01/14 06:11:42;;;;;;;17.95;12.00;;;;;;;;;;4935862;29;20131;-58
2024/01/14 06:14:07;;;;;;;15.95;10.75;;;;;;;;;;4939119;29;20020;-54
2024/01/14 06:16:37;;;;;;;16.17;11.52;;;;;;;;;;4938696;29;20571;-56
2024/01/14 06:19:02;;;;;;;17.40;11.35;;;;;;;;;;4936864;29;20032;-58
2024/01/14 06:21:28;;;;;;;17.17;12.73;;;;;;;;;;4938877;29;20046;-57
2024/01/14 06:23:53;;;;;;;19.05;12.18;;;;;;;;;;4936806;29;20386;-57
2024/01/14 06:26:19;;;;;;;15.45;11.75;;;;;;;;;;4938822;29;20265;-57
2024/01/14 06:28:45;;;;;;;15.15;11.02;;;;;;;;;;4936857;29;20462;-55
2024/01/14 06:31:10;;;;;;;20.80;12.90;;;;;;;;;;4934540;29;20036;-58
2024/01/14 06:33:36;;;;;;;15.63;10.73;;;;;;;;;;4935459;29;20052;-56
2024/01/14 06:36:06;;;;;;;17.75;12.35;;;;;;;;;;4939300;29;20087;-57
2024/01/14 06:38:32;;;;;;;15.60;11.73;;;;;;;;;;4936899;29;20526;-57
2024/01/14 06:40:58;;;;;;;20.02;13.30;;;;;;;;;;4950589;28;20027;-54
2024/01/14 06:43:23;;;;;;;18.25;13.15;;;;;;;;;;4936853;29;20051;-56
2024/01/14 06:45:49;;;;;;;17.38;12.63;;;;;;;;;;4938886;29;20019;-56
2024/01/14 06:48:15;;;;;;;16.15;11.52;;;;;;;;;;4937294;29;20115;-56
2024/01/14 06:50:40;;;;;;;15.38;10.85;;;;;;;;;;4936117;29;20028;-56
2024/01/14 06:53:06;;;;;;;19.48;14.10;;;;;;;;;;4937472;28;20035;-57
2024/01/14 06:55:31;;;;;;;20.83;13.95;;;;;;;;;;4936967;29;20032;-57
2024/01/14 06:57:57;;;;;;;19.60;14.35;;;;;;;;;;4937667;29;20097;-58
2024/01/14 07:00:22;;;;;;;17.05;12.48;;;;;;;;;;4934681;29;20031;-56
2024/01/14 07:02:48;;;;;;;17.15;13.55;;;;;;;;;;4938409;29;20067;-56
2024/01/14 07:05:13;;;;;;;24.48;15.95;;;;;;;;;;4936973;29;20058;-55
2024/01/14 07:07:39;;;;;;;26.23;16.73;;;;;;;;;;4931287;29;20051;-57
2024/01/14 07:10:04;;;;;;;25.20;16.13;;;;;;;;;;4938572;29;20039;-56
2024/01/14 07:12:30;;;;;;;20.13;13.10;;;;;;;;;;4937575;29;20043;-56
2024/01/14 07:14:56;;;;;;;22.13;13.45;;;;;;;;;;4936993;29;20589;-54
2024/01/14 07:17:21;;;;;;;21.55;14.63;;;;;;;;;;4937057;29;20040;-58
2024/01/14 07:19:47;;;;;;;24.92;15.68;;;;;;;;;;4936612;29;20110;-56
2024/01/14 07:22:12;;;;;;;22.30;18.13;;;;;;;;;;4936608;29;20103;-58
2024/01/14 07:24:38;;;;;;;23.25;13.75;;;;;;;;;;4937285;29;20115;-55
2024/01/14 07:27:04;;;;;;;18.27;14.27;;;;;;;;;;4936548;29;20514;-54
2024/01/14 07:29:29;;;;;;;16.10;13.02;;;;;;;;;;4935182;29;20031;-58
2024/01/14 07:31:55;;;;;;;19.45;13.40;;;;;;;;;;4938106;29;20039;-56
2024/01/14 07:34:21;;;;;;;20.10;13.73;;;;;;;;;;4935835;29;20151;-58
2024/01/14 07:36:46;;;;;;;20.30;14.65;;;;;;;;;;4937504;29;20432;-57
2024/01/14 07:39:12;;;;;;;21.00;13.60;;;;;;;;;;4936275;29;20363;-54
2024/01/14 07:41:39;;;;;;;18.45;13.40;;;;;;;;;;4936256;28;20046;-58
2024/01/14 07:44:05;;;;;;;22.08;13.80;;;;;;;;;;4935850;29;20398;-54
2024/01/14 07:46:31;;;;;;;18.55;12.27;;;;;;;;;;4937666;29;20024;-54
2024/01/14 07:48:56;;;;;;;16.60;13.90;;;;;;;;;;4937514;29;20451;-57
2024/01/14 07:51:21;;;;;;;21.52;13.27;;;;;;;;;;4935832;29;20118;-54
2024/01/14 07:53:47;;;;;;;22.90;14.02;;;;;;;;;;4935702;29;20098;-55
2024/01/14 07:56:12;;;;;;;25.75;15.23;;;;;;;;;;4936557;29;20082;-56
2024/01/14 07:58:39;;;;;;;24.63;15.20;;;;;;;;;;4936967;29;20415;-57
2024/01/14 08:01:05;;;;;;;22.83;13.70;;;;;;;;;;4930883;29;20083;-56
2024/01/14 08:03:30;;;;;;;20.88;12.80;;;;;;;;;;4933411;29;20036;-55
2024/01/14 08:05:56;;;;;;;19.35;12.32;;;;;;;;;;4934826;29;20034;-54
2024/01/14 08:08:21;;;;;;;20.17;12.50;;;;;;;;;;4935788;29;20044;-56
2024/01/14 08:10:48;;;;;;;16.70;13.02;;;;;;;;;;4935485;29;20027;-57
2024/01/14 08:13:14;;;;;;;22.95;14.70;;;;;;;;;;4935517;29;20039;-55
2024/01/14 08:15:39;;;;;;;27.48;24.60;;;;;;;;;;4932828;29;20131;-54
2024/01/14 08:18:04;;;;;;;38.90;27.45;;;;;;;;;;4937265;29;20040;-57
2024/01/14 08:20:31;;;;;;;27.45;18.38;;;;;;;;;;4935068;29;20115;-57
2024/01/14 08:22:56;;;;;;;22.15;14.00;;;;;;;;;;4933518;28;20498;-57
2024/01/14 08:25:22;;;;;;;15.88;11.93;;;;;;;;;;4934198;29;20048;-57
2024/01/14 08:27:49;;;;;;;15.23;10.82;;;;;;;;;;4934175;29;20087;-56
2024/01/14 08:30:14;;;;;;;20.15;11.80;;;;;;;;;;4933103;29;20035;-55
2024/01/14 08:32:40;;;;;;;19.55;12.77;;;;;;;;;;4935166;29;20048;-56
2024/01/14 08:35:05;;;;;;;22.35;15.55;;;;;;;;;;4933893;29;20042;-57
2024/01/14 08:37:31;;;;;;;21.52;13.60;;;;;;;;;;4934477;29;20040;-57
2024/01/14 08:39:57;;;;;;;19.83;13.65;;;;;;;;;;4935081;29;20110;-56
2024/01/14 08:42:22;;;;;;;19.45;14.93;;;;;;;;;;4934522;29;20433;-57
2024/01/14 08:44:47;;;;;;;21.65;17.80;;;;;;;;;;4937071;29;20035;-57
2024/01/14 08:47:13;;;;;;;21.60;14.70;;;;;;;;;;4935273;29;20153;-57
2024/01/14 08:49:42;;;;;;;19.27;14.13;;;;;;;;;;4936642;29;20039;-54
2024/01/14 08:52:08;;;;;;;15.38;12.25;;;;;;;;;;4936068;29;20047;-56
2024/01/14 08:54:37;;;;;;;14.32;10.38;;;;;;;;;;4937493;29;20031;-57
2024/01/14 08:57:02;;;;;;;16.80;12.45;;;;;;;;;;4936246;29;20501;-54
2024/01/14 08:59:28;;;;;;;19.65;15.10;;;;;;;;;;4955791;29;20034;-56
2024/01/14 09:01:53;;;;;;;20.00;15.32;;;;;;;;;;4932181;29;20048;-57
2024/01/14 09:04:19;;;;;;;19.40;14.45;;;;;;;;;;4935839;29;20055;-56
2024/01/14 09:06:45;;;;;;;22.08;16.98;;;;;;;;;;4932687;29;20063;-57
2024/01/14 09:09:11;;;;;;;23.88;15.93;;;;;;;;;;4939769;29;20039;-55
2024/01/14 09:11:36;;;;;;;23.38;15.77;;;;;;;;;;4937905;28;20023;-57
2024/01/14 09:14:02;;;;;;;21.90;17.20;;;;;;;;;;4933804;29;20034;-57
2024/01/14 09:16:27;;;;;;;22.23;15.98;;;;;;;;;;4938122;29;20043;-56
2024/01/14 09:18:53;;;;;;;18.85;14.02;;;;;;;;;;4933401;29;20411;-54
2024/01/14 09:21:18;;;;;;;22.27;13.70;;;;;;;;;;4931385;29;20035;-56
2024/01/14 09:23:44;;;;;;;20.45;14.90;;;;;;;;;;4933302;29;20047;-57
2024/01/14 09:26:09;;;;;;;26.30;19.38;;;;;;;;;;4936449;29;20426;-54
2024/01/14 09:28:36;;;;;;;25.60;17.95;;;;;;;;;;4933724;29;20426;-57
2024/01/14 09:31:01;;;;;;;22.88;16.80;;;;;;;;;;4931423;29;20031;-56
2024/01/14 09:33:27;;;;;;;25.00;18.60;;;;;;;;;;4936175;29;20564;-57
2024/01/14 09:35:52;;;;;;;26.48;19.80;;;;;;;;;;4935034;29;20038;-56
2024/01/14 09:38:18;;;;;;;34.10;22.70;;;;;;;;;;4931471;29;20054;-56
2024/01/14 09:40:43;;;;;;;33.70;22.52;;;;;;;;;;4929764;29;20038;-54
2024/01/14 09:43:13;;;;;;;30.60;19.92;;;;;;;;;;4933328;29;20043;-54
2024/01/14 09:45:40;;;;;;;33.30;21.95;;;;;;;;;;4936714;29;20047;-57
2024/01/14 09:48:07;;;;;;;33.03;22.92;;;;;;;;;;4937618;29;20044;-55
2024/01/14 09:50:34;;;;;;;28.27;20.83;;;;;;;;;;4932725;29;20031;-54
2024/01/14 09:53:01;;;;;;;33.58;23.58;;;;;;;;;;4932278;29;20044;-57
2024/01/14 09:55:27;;;;;;;30.98;21.67;;;;;;;;;;4939587;29;20024;-56
2024/01/14 09:57:53;;;;;;;32.40;21.50;;;;;;;;;;4933549;29;20046;-56
2024/01/14 10:00:22;;;;;;;28.90;20.17;;;;;;;;;;4927495;29;20157;-55
2024/01/14 10:02:47;;;;;;;28.38;21.65;;;;;;;;;;4932167;29;20044;-55
2024/01/14 10:05:18;;;;;;;29.63;20.55;;;;;;;;;;4934054;29;20063;-56
2024/01/14 10:07:46;;;;;;;29.65;24.20;;;;;;;;;;4929788;29;20040;-56
2024/01/14 10:10:12;;;;;;;30.77;22.20;;;;;;;;;;4933371;29;20046;-57
2024/01/14 10:12:37;;;;;;;25.85;17.95;;;;;;;;;;4936574;29;20043;-56
2024/01/14 10:15:03;;;;;;;24.33;17.95;;;;;;;;;;4933751;29;20115;-55
2024/01/14 10:17:29;;;;;;;21.67;16.80;;;;;;;;;;4933445;29;20050;-55
2024/01/14 10:19:57;;;;;;;20.85;14.18;;;;;;;;;;4929765;29;20091;-56
2024/01/14 10:22:25;;;;;;;18.67;14.70;;;;;;;;;;4936084;29;20070;-56
2024/01/14 10:24:51;;;;;;;17.95;13.63;;;;;;;;;;4937969;29;20024;-58
2024/01/14 10:27:17;;;;;;;19.48;13.82;;;;;;;;;;4935103;29;20112;-54
2024/01/14 10:29:42;;;;;;;18.00;15.02;;;;;;;;;;4935902;29;20383;-56
2024/01/14 10:32:08;;;;;;;18.00;14.38;;;;;;;;;;4933266;29;20127;-57
2024/01/14 10:34:34;;;;;;;19.08;15.27;;;;;;;;;;4937308;29;20086;-56
2024/01/14 10:37:01;;;;;;;20.60;16.05;;;;;;;;;;4929677;29;20043;-58
2024/01/14 10:39:30;;;;;;;19.60;13.65;;;;;;;;;;4933134;29;20031;-56
2024/01/14 10:41:55;;;;;;;;;;;;;;;;;;4932299;29;20400;-57
2024/01/14 10:44:21;;;;;;;17.00;12.57;;;;;;;;;;4931432;29;19915;-54
2024/01/14 10:46:51;;;;;;;20.63;14.68;;;;;;;;;;4936893;29;20043;-58
2024/01/14 10:49:20;;;;;;;20.88;13.80;;;;;;;;;;4932844;29;20032;-56
2024/01/14 10:51:49;;;;;;;;;;;;;;;;;;4929133;29;20468;-53
2024/01/14 10:54:28;;;;;;;15.13;10.98;;;;;;;;;;4929445;29;20297;-53
2024/01/14 10:57:13;;;;;;;22.80;14.20;;;;;;;;;;4928832;29;20052;-53
2024/01/14 10:59:43;;;;;;;26.60;19.05;;;;;;;;;;4926956;29;20040;-57
2024/01/14 11:02:16;;;;;;;22.45;17.95;;;;;;;;;;4930232;29;20073;-53
2024/01/14 11:04:43;;;;;;;18.13;12.73;;;;;;;;;;4931625;29;20552;-55
2024/01/14 11:07:08;;;;;;;14.63;10.93;;;;;;;;;;4929516;29;20048;-56
2024/01/14 11:09:33;;;;;;;16.58;10.95;;;;;;;;;;4928888;29;20036;-56
2024/01/14 11:12:08;;;;;;;14.85;10.23;;;;;;;;;;4930368;29;20502;-55
2024/01/14 11:15:01;;;;;;;17.90;11.88;;;;;;;;;;4931896;29;20038;-56
2024/01/14 11:17:49;;;;;;;36.58;24.95;;;;;;;;;;4931711;29;20473;-54
2024/01/14 11:20:16;;;;;;;39.42;26.17;;;;;;;;;;4931128;29;20036;-57
2024/01/14 11:22:42;;;;;;;41.60;28.75;;;;;;;;;;4930455;29;20067;-58
2024/01/14 11:25:17;;;;;;;46.30;30.67;;;;;;;;;;4936840;29;20561;-57
2024/01/14 11:27:44;;;;;;;45.55;30.42;;;;;;;;;;4928753;29;20080;-59
2024/01/14 11:30:11;;;;;;;44.45;31.73;;;;;;;;;;4928965;29;20024;-59
2024/01/14 11:32:36;;;;;;;42.25;28.77;;;;;;;;;;4934175;29;20044;-58
2024/01/14 11:35:02;;;;;;;41.38;27.58;;;;;;;;;;4931025;29;20030;-60
2024/01/14 11:37:44;;;;;;;45.05;30.55;;;;;;;;;;4929498;28;20522;-59
2024/01/14 11:40:13;;;;;;;39.22;28.23;;;;;;;;;;4935616;29;20505;-60
2024/01/14 11:42:49;;;;;;;43.08;27.63;;;;;;;;;;4932266;29;20043;-59
2024/01/14 11:45:23;;;;;;;41.80;28.52;;;;;;;;;;4928319;29;20031;-60
2024/01/14 11:47:50;;;;;;;39.33;27.52;;;;;;;;;;4928926;29;20066;-57
2024/01/14 11:50:16;;;;;;;40.08;28.70;;;;;;;;;;4927798;29;20570;-60
2024/01/14 11:52:44;;;;;;;42.42;31.10;;;;;;;;;;4929465;29;20122;-58
2024/01/14 11:55:14;;;;;;;42.55;28.67;;;;;;;;;;4930789;29;20044;-59
2024/01/14 11:57:40;;;;;;;39.13;29.33;;;;;;;;;;4929813;29;21786;-59
2024/01/14 12:00:07;;;;;;;44.38;32.60;;;;;;;;;;4926518;29;20613;-58
2024/01/14 12:02:36;;;;;;;45.00;30.95;;;;;;;;;;4929289;29;20048;-60
2024/01/14 12:05:18;;;;;;;49.80;39.28;;;;;;;;;;4926756;29;20039;-56
2024/01/14 12:07:44;;;;;;;44.22;29.88;;;;;;;;;;4928465;29;20551;-57
2024/01/14 12:10:18;;;;;;;53.35;37.55;;;;;;;;;;4931418;29;20036;-57
2024/01/14 12:12:43;;;;;;;47.63;33.20;;;;;;;;;;4930708;29;20543;-59
2024/01/14 12:15:09;;;;;;;44.03;31.65;;;;;;;;;;4933440;29;20040;-59
2024/01/14 12:17:35;;;;;;;46.15;32.95;;;;;;;;;;4936872;29;20054;-57
2024/01/14 12:20:04;;;;;;;39.80;29.25;;;;;;;;;;4930584;29;20390;-57
2024/01/14 12:22:30;;;;;;;41.47;30.20;;;;;;;;;;4932042;29;20042;-59
2024/01/14 12:24:56;;;;;;;45.17;31.33;;;;;;;;;;4935886;29;20031;-60
2024/01/14 12:27:21;;;;;;;40.55;28.85;;;;;;;;;;4933350;29;20047;-60
2024/01/14 12:29:47;;;;;;;40.38;30.38;;;;;;;;;;4934721;29;20375;-60
2024/01/14 12:32:12;;;;;;;43.55;28.20;;;;;;;;;;4931734;29;20047;-58
2024/01/14 12:34:38;;;;;;;39.35;25.63;;;;;;;;;;4934581;29;20027;-58
2024/01/14 12:37:05;;;;;;;42.58;27.00;;;;;;;;;;4936557;29;20040;-60
2024/01/14 12:39:30;;;;;;;35.72;26.17;;;;;;;;;;4933538;29;20027;-59
2024/01/14 12:41:56;;;;;;;38.78;26.13;;;;;;;;;;4937885;29;20035;-59
2024/01/14 12:44:24;;;;;;;39.55;27.27;;;;;;;;;;4933334;29;20165;-60
2024/01/14 12:46:51;;;;;;;32.72;25.70;;;;;;;;;;4931262;29;20035;-59
2024/01/14 12:49:17;;;;;;;35.70;26.27;;;;;;;;;;4931266;29;20430;-54
2024/01/14 12:51:42;;;;;;;36.75;25.77;;;;;;;;;;4931614;29;20047;-55
2024/01/14 12:54:08;;;;;;;38.03;25.83;;;;;;;;;;4935090;29;20048;-57
2024/01/14 12:56:35;;;;;;;41.20;26.63;;;;;;;;;;4933324;29;20031;-58
2024/01/14 12:59:01;;;;;;;43.10;28.73;;;;;;;;;;4934221;29;20057;-58
2024/01/14 13:01:27;;;;;;;33.17;25.70;;;;;;;;;;4936131;29;20038;-56
2024/01/14 13:03:52;;;;;;;37.65;26.83;;;;;;;;;;4935291;29;20149;-59
2024/01/14 13:06:17;;;;;;;37.13;26.63;;;;;;;;;;4932454;29;20032;-58
2024/01/14 13:08:43;;;;;;;40.08;27.10;;;;;;;;;;4940542;29;20039;-58
2024/01/14 13:11:08;;;;;;;33.47;22.85;;;;;;;;;;4940050;29;20078;-58
2024/01/14 13:13:37;;;;;;;32.90;25.85;;;;;;;;;;4929266;29;20179;-58
2024/01/14 13:16:04;;;;;;;36.90;25.17;;;;;;;;;;4938396;29;20573;-58
2024/01/14 13:18:29;;;;;;;32.28;23.77;;;;;;;;;;4933927;29;20043;-59
2024/01/14 13:20:55;;;;;;;33.70;23.40;;;;;;;;;;4929623;29;20038;-57
2024/01/14 13:23:21;;;;;;;28.45;21.98;;;;;;;;;;4931262;29;20129;-55
2024/01/14 13:25:46;;;;;;;28.38;19.77;;;;;;;;;;4934441;29;20024;-57
2024/01/14 13:28:11;;;;;;;27.52;18.95;;;;;;;;;;4929250;29;20398;-55
2024/01/14 13:30:37;;;;;;;28.05;19.52;;;;;;;;;;4939805;29;20024;-57
2024/01/14 13:33:03;;;;;;;27.55;19.77;;;;;;;;;;4930006;29;20039;-58
2024/01/14 13:35:28;;;;;;;26.52;18.23;;;;;;;;;;4938511;29;20492;-58
2024/01/14 13:37:54;;;;;;;27.70;18.58;;;;;;;;;;4936063;29;20035;-56
2024/01/14 13:40:19;;;;;;;26.80;18.35;;;;;;;;;;4934327;29;20032;-54
2024/01/14 13:42:45;;;;;;;24.95;19.10;;;;;;;;;;4936441;29;20046;-55
2024/01/14 13:45:10;;;;;;;24.73;18.52;;;;;;;;;;4937840;29;20019;-55
2024/01/14 13:47:36;;;;;;;25.42;17.17;;;;;;;;;;4938232;29;20048;-59
2024/01/14 13:50:02;;;;;;;27.92;20.08;;;;;;;;;;4938417;29;20398;-55
2024/01/14 13:52:28;;;;;;;28.73;20.73;;;;;;;;;;4934262;29;20580;-57
2024/01/14 13:54:54;;;;;;;29.02;21.15;;;;;;;;;;4939176;29;20036;-56
2024/01/14 13:57:19;;;;;;;23.95;18.35;;;;;;;;;;4933940;29;20144;-56
2024/01/14 13:59:44;;;;;;;24.35;19.88;;;;;;;;;;4937306;29;20036;-55
2024/01/14 14:02:13;;;;;;;29.42;20.75;;;;;;;;;;4937499;29;20050;-57
2024/01/14 14:04:39;;;;;;;25.13;18.73;;;;;;;;;;4939389;29;20088;-57
2024/01/14 14:07:05;;;;;;;27.10;21.17;;;;;;;;;;4937620;29;20051;-59
2024/01/14 14:09:30;;;;;;;24.45;19.13;;;;;;;;;;4936252;29;20050;-57
2024/01/14 14:11:55;;;;;;;26.92;21.05;;;;;;;;;;4935737;29;20052;-57